createdAt,value
2023-03-18T00:00:15.430Z,3.98
2023-03-18T00:03:03.282Z,4.33
2023-03-18T00:05:50.526Z,4.35
2023-03-18T00:08:39.257Z,4.08
2023-03-18T00:11:27.226Z,4.78
2023-03-18T00:14:15.358Z,4.70
2023-03-18T00:17:02.823Z,3.80
2023-03-18T00:19:50.233Z,3.67
2023-03-18T00:22:39.853Z,3.45
2023-03-18T00:25:28.138Z,3.70
2023-03-18T00:28:18.447Z,3.67
2023-03-18T00:31:08.979Z,3.75
2023-03-18T00:33:56.643Z,3.95
2023-03-18T00:36:45.615Z,3.62
2023-03-18T00:39:33.104Z,3.65
2023-03-18T00:42:20.070Z,3.37
2023-03-18T00:45:10.286Z,3.77
2023-03-18T00:47:57.702Z,4.20
2023-03-18T00:50:45.552Z,3.83
2023-03-18T00:53:32.848Z,3.65
2023-03-18T00:56:23.008Z,4.03
2023-03-18T00:59:10.225Z,3.02
2023-03-18T01:01:58.346Z,3.50
2023-03-18T01:04:45.855Z,3.45
2023-03-18T01:07:33.350Z,3.72
2023-03-18T01:10:23.248Z,4.17
2023-03-18T01:13:10.771Z,4.15
2023-03-18T01:15:58.426Z,4.25
2023-03-18T01:18:46.569Z,3.98
2023-03-18T01:21:34.530Z,4.28
2023-03-18T01:24:22.373Z,4.15
2023-03-18T01:27:09.579Z,4.20
2023-03-18T01:29:56.823Z,3.20
2023-03-18T01:32:44.688Z,3.83
2023-03-18T01:35:35.707Z,5.03
2023-03-18T01:38:23.962Z,4.60
2023-03-18T01:41:12.257Z,5.60
2023-03-18T01:43:59.687Z,4.30
2023-03-18T01:46:48.510Z,4.95
2023-03-18T01:49:39.106Z,4.87
2023-03-18T01:52:29.282Z,4.33
2023-03-18T01:55:22.003Z,5.15
2023-03-18T01:58:15.055Z,5.72
2023-03-18T02:01:11.779Z,5.50
2023-03-18T02:04:00.375Z,5.42
2023-03-18T02:06:47.548Z,4.97
2023-03-18T02:09:34.842Z,5.00
2023-03-18T02:12:28.068Z,5.50
2023-03-18T02:15:18.590Z,5.50
2023-03-18T02:18:12.576Z,6.15
2023-03-18T02:21:20.766Z,4.75
2023-03-18T02:24:25.522Z,5.37
2023-03-18T02:27:21.802Z,5.15
2023-03-18T02:30:14.756Z,6.08
2023-03-18T02:33:02.838Z,5.75
2023-03-18T02:35:53.383Z,5.67
2023-03-18T02:38:45.342Z,6.60
2023-03-18T02:41:35.741Z,7.20
2023-03-18T02:44:23.769Z,6.78
2023-03-18T02:47:14.251Z,7.45
2023-03-18T02:50:01.465Z,7.33
2023-03-18T02:52:48.842Z,7.05
2023-03-18T02:55:35.918Z,6.83
2023-03-18T02:58:23.497Z,7.20
2023-03-18T03:01:11.340Z,7.20
2023-03-18T03:03:58.675Z,7.45
2023-03-18T03:06:46.314Z,7.92
2023-03-18T03:09:33.584Z,7.33
2023-03-18T03:12:21.439Z,8.60
2023-03-18T03:15:09.821Z,8.40
2023-03-18T03:17:56.828Z,8.25
2023-03-18T03:20:45.532Z,8.75
2023-03-18T03:23:32.933Z,9.18
2023-03-18T03:26:20.520Z,9.45
2023-03-18T03:29:07.857Z,7.75
2023-03-18T03:31:55.697Z,9.45
2023-03-18T03:34:43.316Z,9.40
2023-03-18T03:37:30.813Z,8.58
2023-03-18T03:40:20.399Z,9.85
2023-03-18T03:43:08.347Z,8.75
2023-03-18T03:45:55.627Z,9.55
2023-03-18T03:48:42.943Z,9.15
2023-03-18T03:51:30.175Z,9.90
2023-03-18T03:54:17.872Z,10.25
2023-03-18T03:57:05.312Z,9.68
2023-03-18T03:59:52.563Z,10.10
2023-03-18T04:02:40.745Z,10.53
2023-03-18T04:05:28.130Z,9.83
2023-03-18T04:08:15.237Z,11.70
2023-03-18T04:11:04.528Z,12.20
2023-03-18T04:13:53.672Z,12.43
2023-03-18T04:16:40.760Z,13.05
2023-03-18T04:19:28.980Z,12.73
2023-03-18T04:22:16.532Z,11.65
2023-03-18T04:25:04.745Z,12.98
2023-03-18T04:27:52.729Z,11.08
2023-03-18T04:30:39.991Z,12.45
2023-03-18T04:33:27.773Z,11.38
2023-03-18T04:36:15.475Z,10.93
2023-03-18T04:39:03.593Z,11.80
2023-03-18T04:41:51.293Z,11.57
2023-03-18T04:44:38.571Z,12.28
2023-03-18T04:47:26.109Z,11.85
2023-03-18T04:50:14.526Z,12.50
2023-03-18T04:53:02.019Z,12.55
2023-03-18T04:55:51.801Z,12.63
2023-03-18T04:58:39.482Z,12.80
2023-03-18T05:01:26.936Z,13.05
2023-03-18T05:04:14.231Z,13.30
2023-03-18T05:07:01.793Z,13.22
2023-03-18T05:09:49.179Z,13.18
2023-03-18T05:12:37.352Z,14.05
2023-03-18T05:15:25.079Z,13.45
2023-03-18T05:18:13.168Z,12.80
2023-03-18T05:21:00.594Z,13.30
2023-03-18T05:23:47.812Z,13.53
2023-03-18T05:26:35.986Z,12.75
2023-03-18T05:29:23.955Z,12.28
2023-03-18T05:32:12.605Z,12.03
2023-03-18T05:34:59.571Z,10.93
2023-03-18T05:37:47.142Z,11.25
2023-03-18T05:40:34.884Z,12.07
2023-03-18T05:43:23.178Z,10.88
2023-03-18T05:46:10.543Z,11.25
2023-03-18T05:48:57.625Z,11.35
2023-03-18T05:51:44.725Z,10.60
2023-03-18T05:54:31.822Z,9.53
2023-03-18T05:57:19.141Z,8.93
2023-03-18T06:00:08.234Z,9.78
2023-03-18T06:02:57.044Z,8.43
2023-03-18T06:05:44.107Z,8.80
2023-03-18T06:08:31.702Z,8.08
2023-03-18T06:11:19.058Z,7.05
2023-03-18T06:14:07.294Z,7.08
2023-03-18T06:16:55.436Z,7.97
2023-03-18T06:19:42.653Z,7.45
2023-03-18T06:22:31.657Z,7.92
2023-03-18T06:25:21.072Z,7.12
2023-03-18T06:28:08.554Z,7.35
2023-03-18T06:30:59.486Z,7.83
2023-03-18T06:33:47.298Z,7.40
2023-03-18T06:36:34.498Z,6.87
2023-03-18T06:39:22.018Z,7.35
2023-03-18T06:42:10.238Z,6.08
2023-03-18T06:44:57.286Z,6.50
2023-03-18T06:47:46.452Z,6.45
2023-03-18T06:50:34.414Z,6.10
2023-03-18T06:53:21.884Z,6.08
2023-03-18T06:56:09.825Z,5.95
2023-03-18T06:58:58.124Z,5.62
2023-03-18T07:01:45.234Z,6.37
2023-03-18T07:04:33.692Z,6.58
2023-03-18T07:07:22.197Z,6.37
2023-03-18T07:10:12.069Z,7.92
2023-03-18T07:13:00.179Z,8.13
2023-03-18T07:15:47.743Z,6.92
2023-03-18T07:18:35.169Z,6.87
2023-03-18T07:21:22.489Z,8.63
2023-03-18T07:24:11.120Z,8.30
2023-03-18T07:26:58.859Z,8.58
2023-03-18T07:29:46.398Z,6.83
2023-03-18T07:32:35.186Z,6.83
2023-03-18T07:35:23.647Z,7.47
2023-03-18T07:38:12.342Z,8.03
2023-03-18T07:40:59.684Z,7.97
2023-03-18T07:43:48.218Z,8.18
2023-03-18T07:46:35.981Z,8.18
2023-03-18T07:49:23.819Z,7.72
2023-03-18T07:52:11.161Z,7.67
2023-03-18T07:54:58.209Z,7.95
2023-03-18T07:57:45.541Z,7.55
2023-03-18T08:00:33.404Z,7.37
2023-03-18T08:03:20.662Z,8.25
2023-03-18T08:06:08.269Z,7.85
2023-03-18T08:08:56.302Z,8.40
2023-03-18T08:11:43.138Z,8.65
2023-03-18T08:14:31.079Z,8.58
2023-03-18T08:17:18.331Z,8.75
2023-03-18T08:20:08.039Z,8.23
2023-03-18T08:22:56.131Z,9.50
2023-03-18T08:25:43.939Z,8.83
2023-03-18T08:28:31.313Z,8.98
2023-03-18T08:31:18.845Z,9.78
2023-03-18T08:34:06.866Z,8.48
2023-03-18T08:36:54.092Z,8.10
2023-03-18T08:39:44.907Z,7.83
2023-03-18T08:42:32.160Z,8.15
2023-03-18T08:45:20.159Z,7.25
2023-03-18T08:48:07.577Z,7.50
2023-03-18T08:50:55.350Z,7.25
2023-03-18T08:53:42.616Z,6.95
2023-03-18T08:56:29.697Z,6.75
2023-03-18T08:59:17.734Z,6.50
2023-03-18T09:02:05.767Z,6.62
2023-03-18T09:04:55.036Z,6.75
2023-03-18T09:07:42.439Z,5.42
2023-03-18T09:10:30.240Z,5.60
2023-03-18T09:13:17.574Z,5.05
2023-03-18T09:16:05.268Z,4.45
2023-03-18T09:18:52.146Z,4.62
2023-03-18T09:21:39.496Z,4.65
2023-03-18T09:24:26.945Z,4.87
2023-03-18T09:27:14.118Z,3.95
2023-03-18T09:30:01.542Z,4.85
2023-03-18T09:32:48.853Z,3.98
2023-03-18T09:35:38.060Z,3.98
2023-03-18T09:38:25.515Z,3.65
2023-03-18T09:41:24.491Z,3.20
2023-03-18T09:44:14.612Z,3.30
2023-03-18T09:47:13.589Z,3.02
2023-03-18T09:50:27.987Z,2.95
2023-03-18T09:53:23.601Z,3.17
2023-03-18T09:56:16.723Z,3.00
2023-03-18T09:59:07.437Z,3.37
2023-03-18T10:01:56.879Z,2.95
2023-03-18T10:04:51.060Z,3.15
2023-03-18T10:07:42.805Z,2.70
2023-03-18T10:10:33.109Z,3.20
2023-03-18T10:13:31.944Z,3.17
2023-03-18T10:16:22.561Z,3.05
2023-03-18T10:19:10.152Z,2.92
2023-03-18T10:22:06.291Z,2.67
2023-03-18T10:25:03.340Z,3.57
2023-03-18T10:28:03.311Z,2.83
2023-03-18T10:31:25.722Z,3.02
2023-03-18T10:34:22.578Z,3.50
2023-03-18T10:37:37.325Z,2.87
2023-03-18T10:40:25.947Z,2.80
2023-03-18T10:43:25.063Z,3.20
2023-03-18T10:46:15.258Z,3.15
2023-03-18T10:49:08.523Z,3.30
2023-03-18T10:52:06.071Z,3.08
2023-03-18T10:54:54.148Z,3.15
2023-03-18T10:57:41.370Z,3.62
2023-03-18T11:00:34.385Z,3.10
2023-03-18T11:03:30.724Z,3.02
2023-03-18T11:06:25.399Z,3.30
2023-03-18T11:09:15.733Z,2.92
2023-03-18T11:12:08.068Z,2.83
2023-03-18T11:14:56.271Z,3.00
2023-03-18T11:17:44.020Z,3.22
2023-03-18T11:20:47.480Z,3.08
2023-03-18T11:23:52.361Z,2.80
2023-03-18T11:26:48.543Z,2.65
2023-03-18T11:29:36.758Z,2.90
2023-03-18T11:32:32.532Z,2.83
2023-03-18T11:35:23.349Z,2.85
2023-03-18T11:38:21.888Z,2.72
2023-03-18T11:41:11.773Z,2.22
2023-03-18T11:44:01.689Z,2.30
2023-03-18T11:46:54.683Z,2.75
2023-03-18T11:49:43.789Z,2.12
2023-03-18T11:52:45.135Z,2.00
2023-03-18T11:55:44.107Z,1.90
2023-03-18T11:58:46.674Z,2.20
2023-03-18T12:01:46.747Z,2.10
2023-03-18T12:04:39.732Z,1.80
2023-03-18T12:07:38.037Z,2.33
2023-03-18T12:10:38.928Z,1.90
2023-03-18T12:13:37.867Z,1.60
2023-03-18T12:16:50.468Z,1.87
2023-03-18T12:19:43.319Z,1.75
2023-03-18T12:22:39.151Z,1.67
2023-03-18T12:25:38.305Z,2.45
2023-03-18T12:28:31.606Z,2.00
2023-03-18T12:31:31.472Z,2.02
2023-03-18T12:34:24.199Z,1.90
2023-03-18T12:37:24.719Z,1.62
2023-03-18T12:40:46.988Z,1.95
2023-03-18T12:43:55.622Z,1.50
2023-03-18T12:46:45.631Z,1.52
2023-03-18T12:49:41.730Z,1.85
2023-03-18T12:52:44.224Z,1.57
2023-03-18T12:55:37.468Z,1.20
2023-03-18T12:58:27.798Z,1.30
2023-03-18T13:01:18.580Z,1.20
2023-03-18T13:04:09.002Z,1.37
2023-03-18T13:07:05.731Z,1.40
2023-03-18T13:09:59.734Z,1.27
2023-03-18T13:12:49.640Z,1.60
2023-03-18T13:15:42.809Z,1.60
2023-03-18T13:18:44.688Z,1.82
2023-03-18T13:21:34.191Z,1.40
2023-03-18T13:24:39.749Z,1.80
2023-03-18T13:27:48.685Z,1.15
2023-03-18T13:30:39.264Z,1.52
2023-03-18T13:33:45.513Z,1.45
2023-03-18T13:36:51.054Z,1.50
2023-03-18T13:39:43.747Z,1.30
2023-03-18T13:42:33.962Z,1.40
2023-03-18T13:45:30.559Z,1.47
2023-03-18T13:48:20.801Z,1.50
2023-03-18T13:51:23.409Z,1.70
2023-03-18T13:54:20.646Z,1.85
2023-03-18T13:57:24.788Z,1.55
2023-03-18T14:00:20.786Z,1.70
2023-03-18T14:03:33.589Z,1.57
2023-03-18T14:06:40.259Z,1.50
2023-03-18T14:09:33.442Z,1.70
2023-03-18T14:12:23.951Z,1.42
2023-03-18T14:15:14.347Z,1.90
2023-03-18T14:18:01.678Z,1.57
2023-03-18T14:20:53.650Z,1.85
2023-03-18T14:23:43.591Z,1.90
2023-03-18T14:26:31.809Z,1.50
2023-03-18T14:29:31.388Z,1.55
2023-03-18T14:32:36.713Z,1.50
2023-03-18T14:35:29.548Z,1.87
2023-03-18T14:38:22.517Z,2.08
2023-03-18T14:41:15.818Z,1.80
2023-03-18T14:44:21.624Z,1.37
2023-03-18T14:47:15.891Z,1.35
2023-03-18T14:50:10.925Z,1.62
2023-03-18T14:53:07.128Z,1.50
2023-03-18T14:55:57.270Z,1.65
2023-03-18T14:58:47.771Z,1.60
2023-03-18T15:01:40.374Z,2.08
2023-03-18T15:04:28.975Z,1.75
2023-03-18T15:07:16.178Z,2.15
2023-03-18T15:10:17.101Z,2.27
2023-03-18T15:13:10.947Z,1.65
2023-03-18T15:15:58.028Z,2.17
2023-03-18T15:18:45.339Z,1.77
2023-03-18T15:21:35.321Z,2.00
2023-03-18T15:24:25.847Z,1.98
2023-03-18T15:27:20.619Z,1.85
2023-03-18T15:30:11.789Z,1.55
2023-03-18T15:33:10.675Z,1.82
2023-03-18T15:36:00.635Z,1.67
2023-03-18T15:38:49.860Z,1.60
2023-03-18T15:41:37.158Z,1.70
2023-03-18T15:44:39.183Z,1.82
2023-03-18T15:47:32.052Z,2.25
2023-03-18T15:50:27.838Z,2.33
2023-03-18T15:53:26.492Z,2.40
2023-03-18T15:56:19.521Z,1.80
2023-03-18T15:59:18.631Z,1.87
2023-03-18T16:02:09.088Z,1.85
2023-03-18T16:05:10.772Z,1.65
2023-03-18T16:08:00.374Z,1.90
2023-03-18T16:10:49.230Z,1.60
2023-03-18T16:13:37.632Z,1.37
2023-03-18T16:16:30.010Z,1.70
2023-03-18T16:19:24.953Z,1.82
2023-03-18T16:22:12.580Z,1.57
2023-03-18T16:25:00.133Z,1.90
2023-03-18T16:27:50.021Z,1.92
2023-03-18T16:30:38.908Z,1.67
2023-03-18T16:33:26.592Z,2.47
2023-03-18T16:36:17.053Z,2.15
2023-03-18T16:39:07.654Z,2.02
2023-03-18T16:41:54.936Z,2.10
2023-03-18T16:44:41.952Z,1.90
2023-03-18T16:47:29.591Z,2.00
2023-03-18T16:50:22.371Z,1.65
2023-03-18T16:53:24.483Z,1.70
2023-03-18T16:56:21.119Z,1.98
2023-03-18T16:59:11.262Z,1.60
2023-03-18T17:01:58.450Z,2.00
2023-03-18T17:04:45.629Z,1.92
2023-03-18T17:07:34.445Z,1.67
2023-03-18T17:10:27.017Z,1.90
2023-03-18T17:13:22.243Z,1.98
2023-03-18T17:16:12.760Z,2.10
2023-03-18T17:19:00.005Z,2.15
2023-03-18T17:21:47.584Z,2.10
2023-03-18T17:24:34.986Z,1.92
2023-03-18T17:27:27.437Z,2.47
2023-03-18T17:30:23.006Z,2.05
2023-03-18T17:33:31.122Z,1.87
2023-03-18T17:36:18.317Z,2.15
2023-03-18T17:39:05.961Z,2.00
2023-03-18T17:41:53.336Z,1.87
2023-03-18T17:44:41.182Z,2.20
2023-03-18T17:47:28.429Z,1.60
2023-03-18T17:50:20.162Z,1.52
2023-03-18T17:53:07.531Z,1.90
2023-03-18T17:55:55.834Z,1.62
2023-03-18T17:58:48.112Z,1.60
2023-03-18T18:01:35.459Z,2.08
2023-03-18T18:04:23.440Z,1.85
2023-03-18T18:07:25.382Z,2.12
2023-03-18T18:10:15.358Z,1.90
2023-03-18T18:13:03.172Z,2.00
2023-03-18T18:15:51.276Z,2.02
2023-03-18T18:18:38.666Z,2.70
2023-03-18T18:21:26.931Z,2.60
2023-03-18T18:24:18.680Z,2.50
2023-03-18T18:27:06.629Z,2.72
2023-03-18T18:29:54.383Z,2.65
2023-03-18T18:32:41.973Z,2.70
2023-03-18T18:35:29.258Z,2.45
2023-03-18T18:38:16.700Z,2.83
2023-03-18T18:41:04.005Z,2.67
2023-03-18T18:43:50.854Z,2.62
2023-03-18T18:46:39.153Z,2.67
2023-03-18T18:49:26.423Z,2.40
2023-03-18T18:52:15.050Z,2.50
2023-03-18T18:55:02.358Z,2.62
2023-03-18T18:57:49.875Z,2.45
2023-03-18T19:00:37.207Z,2.50
2023-03-18T19:03:27.631Z,3.08
2023-03-18T19:06:32.530Z,2.87
2023-03-18T19:09:26.190Z,3.17
2023-03-18T19:12:15.714Z,3.02
2023-03-18T19:15:02.837Z,3.58
2023-03-18T19:17:49.861Z,3.00
2023-03-18T19:20:37.377Z,3.10
2023-03-18T19:23:27.833Z,2.80
2023-03-18T19:26:16.825Z,2.80
2023-03-18T19:29:04.190Z,2.27
2023-03-18T19:31:51.545Z,2.05
2023-03-18T19:34:38.997Z,2.70
2023-03-18T19:37:29.520Z,2.00
2023-03-18T19:40:22.882Z,2.10
2023-03-18T19:43:21.614Z,2.20
2023-03-18T19:46:24.196Z,1.60
2023-03-18T19:49:23.390Z,2.30
2023-03-18T19:52:25.620Z,2.30
2023-03-18T19:55:16.671Z,3.12
2023-03-18T19:58:03.993Z,3.50
2023-03-18T20:00:51.859Z,4.03
2023-03-18T20:03:38.822Z,3.50
2023-03-18T20:06:27.108Z,3.30
2023-03-18T20:09:15.308Z,2.62
2023-03-18T20:12:04.891Z,3.10
2023-03-18T20:14:52.148Z,2.42
2023-03-18T20:17:44.476Z,3.02
2023-03-18T20:20:33.586Z,2.50
2023-03-18T20:23:26.338Z,2.90
2023-03-18T20:26:13.909Z,1.95
2023-03-18T20:29:01.418Z,2.80
2023-03-18T20:31:48.869Z,2.83
2023-03-18T20:34:37.773Z,2.52
2023-03-18T20:37:32.933Z,2.85
2023-03-18T20:40:25.402Z,3.17
2023-03-18T20:43:17.623Z,1.98
2023-03-18T20:46:05.113Z,2.40
2023-03-18T20:48:53.146Z,2.65
2023-03-18T20:51:44.169Z,2.80
2023-03-18T20:54:32.449Z,2.35
2023-03-18T20:57:19.865Z,2.60
2023-03-18T21:00:08.440Z,2.62
2023-03-18T21:02:57.953Z,2.50
2023-03-18T21:05:46.262Z,2.47
2023-03-18T21:08:33.717Z,2.10
2023-03-18T21:11:24.232Z,2.75
2023-03-18T21:14:16.017Z,2.55
2023-03-18T21:17:04.238Z,2.17
2023-03-18T21:19:53.306Z,2.15
2023-03-18T21:22:40.704Z,2.27
2023-03-18T21:25:29.179Z,2.58
2023-03-18T21:28:18.533Z,2.42
2023-03-18T21:31:07.202Z,2.90
2023-03-18T21:33:55.281Z,3.20
2023-03-18T21:36:42.701Z,3.12
2023-03-18T21:39:30.741Z,2.62
2023-03-18T21:42:29.723Z,3.05
2023-03-18T21:45:20.251Z,2.77
2023-03-18T21:48:09.639Z,2.75
2023-03-18T21:50:56.063Z,2.80
2023-03-18T21:53:43.792Z,3.20
2023-03-18T21:56:31.109Z,2.55
2023-03-18T21:59:18.409Z,2.70
2023-03-18T22:02:08.644Z,2.90
2023-03-18T22:05:00.848Z,2.72
2023-03-18T22:07:48.320Z,2.83
2023-03-18T22:10:35.378Z,2.70
2023-03-18T22:13:25.380Z,3.10
2023-03-18T22:16:15.350Z,3.10
2023-03-18T22:19:02.372Z,3.00
2023-03-18T22:21:49.618Z,2.52
2023-03-18T22:24:37.135Z,2.95
2023-03-18T22:27:26.673Z,2.90
2023-03-18T22:30:14.386Z,2.90
2023-03-18T22:33:04.126Z,2.83
2023-03-18T22:35:51.480Z,3.02
2023-03-18T22:38:38.949Z,2.95
2023-03-18T22:41:31.170Z,2.72
2023-03-18T22:44:23.562Z,3.00
2023-03-18T22:47:19.825Z,2.90
2023-03-18T22:50:07.402Z,2.65
2023-03-18T22:53:00.792Z,3.10
2023-03-18T22:55:49.462Z,2.87
2023-03-18T22:58:37.022Z,2.95
2023-03-18T23:01:27.175Z,2.80
2023-03-18T23:04:14.235Z,2.30
2023-03-18T23:07:01.465Z,2.72
2023-03-18T23:09:56.544Z,2.55
2023-03-18T23:12:39.288Z,2.50
2023-03-18T23:15:26.560Z,3.00
2023-03-18T23:18:16.668Z,2.58
2023-03-18T23:21:03.920Z,2.37
2023-03-18T23:23:52.404Z,2.83
2023-03-18T23:26:39.306Z,2.83
2023-03-18T23:29:26.467Z,2.27
2023-03-18T23:32:14.958Z,2.67
2023-03-18T23:35:02.256Z,2.62
2023-03-18T23:37:49.382Z,3.10
2023-03-18T23:40:36.972Z,3.05
2023-03-18T23:43:24.386Z,2.37
2023-03-18T23:46:11.924Z,2.87
2023-03-18T23:48:59.050Z,2.80
2023-03-18T23:51:46.768Z,3.17
2023-03-18T23:54:34.594Z,3.20
2023-03-18T23:57:21.763Z,3.02
